Time;durP1;ratioP1;P1;durP2;ratioP2;P2;SDS_P1;SDS_P2;PMS_P1;PMS_P2;Temp;Humidity;BMP_temperature;BMP_pressure;BME280_temperature;BME280_humidity;BME280_pressure;Samples;Min_cycle;Max_cycle;Signal;HPM_P1;HPM_P2
2022/03/03 00:00:38;;;;;;;11.77;3.20;;;29.70;16.20;;;;;;5030908;28;20149;-71
2022/03/03 00:03:04;;;;;;;14.70;3.67;;;29.70;16.50;;;;;;5030921;28;20088;-71
2022/03/03 00:05:31;;;;;;;13.80;2.08;;;29.60;16.80;;;;;;5031406;28;20069;-71
2022/03/03 00:07:57;;;;;;;12.55;2.90;;;29.50;17.00;;;;;;5030818;28;20104;-71
2022/03/03 00:10:23;;;;;;;40.95;5.50;;;29.40;16.60;;;;;;5031579;28;20108;-74
2022/03/03 00:12:50;;;;;;;20.17;4.07;;;29.30;17.00;;;;;;5031778;28;20246;-72
2022/03/03 00:15:16;;;;;;;16.40;2.42;;;29.30;17.20;;;;;;5038084;28;20126;-71
2022/03/03 00:17:43;;;;;;;58.13;6.45;;;29.30;17.10;;;;;;5031249;28;20068;-71
2022/03/03 00:20:10;;;;;;;81.15;7.55;;;29.20;16.80;;;;;;5032633;28;20159;-73
2022/03/03 00:22:36;;;;;;;46.25;5.03;;;29.10;17.10;;;;;;5032038;28;20087;-72
2022/03/03 00:25:03;;;;;;;6.22;1.75;;;29.00;16.90;;;;;;5030748;28;20168;-72
2022/03/03 00:27:30;;;;;;;16.73;3.78;;;29.00;16.80;;;;;;5030237;28;20519;-73
2022/03/03 00:29:56;;;;;;;44.38;5.43;;;28.90;17.30;;;;;;5029184;28;20077;-74
2022/03/03 00:32:22;;;;;;;48.17;5.05;;;28.90;16.90;;;;;;5030529;28;20142;-71
2022/03/03 00:34:49;;;;;;;70.43;7.93;;;28.90;18.10;;;;;;5030184;28;20184;-72
2022/03/03 00:37:17;;;;;;;131.27;15.50;;;28.80;17.90;;;;;;5034986;28;20155;-72
2022/03/03 00:39:43;;;;;;;62.17;7.18;;;28.80;17.90;;;;;;5036008;28;20127;-73
2022/03/03 00:42:10;;;;;;;62.72;7.40;;;28.70;17.90;;;;;;5027058;28;20089;-73
2022/03/03 00:44:36;;;;;;;29.73;4.00;;;28.70;18.30;;;;;;5029099;28;20553;-72
2022/03/03 00:47:03;;;;;;;34.05;3.60;;;28.50;17.90;;;;;;5024796;28;20100;-71
2022/03/03 00:49:29;;;;;;;31.65;4.18;;;28.50;17.80;;;;;;5031840;28;20073;-71
2022/03/03 00:51:56;;;;;;;23.33;4.13;;;28.40;18.10;;;;;;5046560;28;20478;-72
2022/03/03 00:54:22;;;;;;;45.38;5.90;;;28.20;18.30;;;;;;5028696;28;20072;-70
2022/03/03 00:56:48;;;;;;;32.40;4.28;;;28.10;18.60;;;;;;5031162;28;20755;-71
2022/03/03 00:59:15;;;;;;;26.33;4.15;;;28.10;18.10;;;;;;5030319;28;20189;-73
2022/03/03 01:01:41;;;;;;;12.80;2.60;;;28.00;18.00;;;;;;5030344;28;20080;-70
2022/03/03 01:04:08;;;;;;;16.45;3.20;;;27.80;18.00;;;;;;5029469;28;20515;-71
2022/03/03 01:06:34;;;;;;;17.92;2.95;;;27.80;18.30;;;;;;5028630;28;20128;-71
2022/03/03 01:09:00;;;;;;;15.05;2.72;;;27.70;18.10;;;;;;5030516;28;20543;-72
2022/03/03 01:11:27;;;;;;;16.88;4.13;;;27.60;18.00;;;;;;5029369;28;20602;-70
2022/03/03 01:13:53;;;;;;;25.23;3.25;;;27.50;18.40;;;;;;5029280;28;20184;-70
2022/03/03 01:16:20;;;;;;;16.38;3.13;;;27.40;18.80;;;;;;5051456;28;20550;-71
2022/03/03 01:18:46;;;;;;;18.98;3.55;;;27.20;18.60;;;;;;5030854;28;20081;-71
2022/03/03 01:21:13;;;;;;;16.25;3.60;;;27.10;19.40;;;;;;5028354;28;20102;-71
2022/03/03 01:23:39;;;;;;;16.85;4.30;;;27.00;19.90;;;;;;5030286;28;20087;-70
2022/03/03 01:26:05;;;;;;;23.80;4.70;;;26.80;20.30;;;;;;5029957;28;20553;-71
2022/03/03 01:28:32;;;;;;;24.58;5.05;;;26.70;20.30;;;;;;5029342;28;20081;-73
2022/03/03 01:30:58;;;;;;;28.65;7.43;;;26.50;20.70;;;;;;5032187;28;20467;-69
2022/03/03 01:33:25;;;;;;;21.75;7.35;;;26.40;21.00;;;;;;5038313;28;20165;-71
2022/03/03 01:35:51;;;;;;;28.35;8.35;;;26.20;21.00;;;;;;5030284;28;20077;-70
2022/03/03 01:38:18;;;;;;;27.40;7.13;;;26.00;20.90;;;;;;5029481;28;20524;-70
2022/03/03 01:40:44;;;;;;;25.55;7.93;;;25.90;20.90;;;;;;5045776;28;20078;-72
2022/03/03 01:43:10;;;;;;;42.80;11.48;;;25.70;20.80;;;;;;5030094;28;20094;-70
2022/03/03 01:45:37;;;;;;;50.42;15.13;;;25.60;21.40;;;;;;5029155;28;20511;-70
2022/03/03 01:48:03;;;;;;;54.58;17.50;;;25.50;21.90;;;;;;5030661;28;20563;-71
2022/03/03 01:50:30;;;;;;;45.35;16.05;;;25.30;22.00;;;;;;5028486;28;20102;-70
2022/03/03 01:52:57;;;;;;;51.85;13.27;;;25.20;22.50;;;;;;5028473;28;20082;-69
2022/03/03 01:55:24;;;;;;;45.25;10.18;;;25.00;22.50;;;;;;5029604;28;20123;-70
2022/03/03 01:57:51;;;;;;;28.67;8.25;;;24.90;22.70;;;;;;5028563;28;20494;-71
2022/03/03 02:00:18;;;;;;;33.05;7.25;;;24.70;23.50;;;;;;5028415;28;20074;-72
2022/03/03 02:02:46;;;;;;;53.95;9.02;;;24.60;24.40;;;;;;5029557;28;20070;-68
2022/03/03 02:05:13;;;;;;;48.95;9.07;;;24.50;24.60;;;;;;5029052;28;20115;-70
2022/03/03 02:07:40;;;;;;;35.40;7.85;;;24.40;25.00;;;;;;5011635;28;20074;-72
2022/03/03 02:10:06;;;;;;;40.60;7.95;;;24.20;25.00;;;;;;5029117;28;20200;-69
2022/03/03 02:12:33;;;;;;;55.10;8.43;;;24.10;25.40;;;;;;5028106;28;20078;-69
2022/03/03 02:15:00;;;;;;;47.75;7.65;;;24.00;26.00;;;;;;5030700;28;20090;-71
2022/03/03 02:17:27;;;;;;;60.88;6.90;;;23.90;26.50;;;;;;5011579;28;20066;-68
2022/03/03 02:19:53;;;;;;;47.38;5.68;;;23.80;26.50;;;;;;5026899;28;20176;-69
2022/03/03 02:22:20;;;;;;;56.28;7.72;;;23.60;26.20;;;;;;5028816;28;20082;-69
2022/03/03 02:24:46;;;;;;;55.30;7.28;;;23.50;26.60;;;;;;5027914;28;20077;-71
2022/03/03 02:27:13;;;;;;;49.55;6.20;;;23.40;26.90;;;;;;5030290;28;20073;-70
2022/03/03 02:29:39;;;;;;;65.38;6.80;;;23.30;27.10;;;;;;5029311;28;20152;-69
2022/03/03 02:32:08;;;;;;;65.47;6.57;;;23.30;27.10;;;;;;5027825;28;20082;-71
2022/03/03 02:34:35;;;;;;;62.25;6.68;;;23.20;27.50;;;;;;5027858;28;20078;-71
2022/03/03 02:37:01;;;;;;;55.58;6.60;;;23.20;27.70;;;;;;5029159;28;20561;-73
2022/03/03 02:39:28;;;;;;;66.32;7.85;;;23.10;27.70;;;;;;5029565;28;20540;-70
2022/03/03 02:41:54;;;;;;;44.95;5.93;;;23.00;28.20;;;;;;5028211;28;20113;-70
2022/03/03 02:44:20;;;;;;;58.38;6.68;;;22.90;27.90;;;;;;5029355;28;20149;-72
2022/03/03 02:46:47;;;;;;;65.38;7.30;;;22.80;28.20;;;;;;5029720;28;20082;-70
2022/03/03 02:49:13;;;;;;;67.05;7.22;;;22.70;28.40;;;;;;5028677;28;20086;-69
2022/03/03 02:51:40;;;;;;;72.85;8.48;;;22.70;28.60;;;;;;5011150;28;20555;-71
2022/03/03 02:54:06;;;;;;;62.05;7.85;;;22.60;28.70;;;;;;5027573;28;20595;-69
2022/03/03 02:57:53;;;;;;;82.15;8.52;;;22.50;28.80;;;;;;5028634;28;20119;-70
2022/03/03 02:59:19;;;;;;;71.75;8.32;;;22.40;29.00;;;;;;5028063;28;20093;-71
2022/03/03 03:01:46;;;;;;;68.32;8.32;;;22.40;29.20;;;;;;5027439;28;20073;-72
2022/03/03 03:04:12;;;;;;;85.72;9.27;;;22.30;29.50;;;;;;5043976;28;20528;-70
2022/03/03 03:06:38;;;;;;;110.45;10.50;;;22.20;30.00;;;;;;5034430;28;20085;-69
2022/03/03 03:09:05;;;;;;;86.15;9.68;;;22.20;30.00;;;;;;5027973;28;20074;-70
2022/03/03 03:11:31;;;;;;;61.03;8.20;;;22.20;30.00;;;;;;5044516;28;20572;-72
2022/03/03 03:13:57;;;;;;;73.28;8.38;;;22.10;30.10;;;;;;5043921;28;20101;-69
2022/03/03 03:16:24;;;;;;;70.88;8.93;;;22.10;30.20;;;;;;5046568;28;20078;-68
2022/03/03 03:18:50;;;;;;;67.20;7.65;;;22.00;30.30;;;;;;5028382;28;20062;-71
2022/03/03 03:21:17;;;;;;;77.03;8.30;;;22.00;31.10;;;;;;5028147;28;20128;-71
2022/03/03 03:23:43;;;;;;;72.22;8.13;;;22.00;31.60;;;;;;5028677;28;20070;-71
2022/03/03 03:26:09;;;;;;;73.28;8.27;;;21.90;31.70;;;;;;5027586;28;20177;-71
2022/03/03 03:28:36;;;;;;;73.25;9.20;;;21.90;31.90;;;;;;5026861;28;20558;-69
2022/03/03 03:31:02;;;;;;;86.30;9.95;;;21.90;31.90;;;;;;5028058;28;20140;-69
2022/03/03 03:33:30;;;;;;;76.07;9.48;;;21.80;32.40;;;;;;5027269;28;20105;-69
2022/03/03 03:35:56;;;;;;;81.85;9.63;;;21.80;32.50;;;;;;5028018;28;21026;-70
2022/03/03 03:38:23;;;;;;;109.40;11.23;;;21.80;32.50;;;;;;5027937;28;20124;-69
2022/03/03 03:40:49;;;;;;;121.90;12.57;;;21.70;32.40;;;;;;5027749;28;20144;-69
2022/03/03 03:43:16;;;;;;;111.63;13.20;;;21.70;32.20;;;;;;5027374;28;20177;-69
2022/03/03 03:45:42;;;;;;;139.45;12.85;;;21.70;32.50;;;;;;5010410;28;20117;-71
2022/03/03 03:48:08;;;;;;;141.02;14.18;;;21.60;32.50;;;;;;5027566;28;20490;-71
2022/03/03 03:50:35;;;;;;;133.73;12.13;;;21.60;33.00;;;;;;5027684;28;20148;-70
2022/03/03 03:53:01;;;;;;;105.28;13.40;;;21.50;33.30;;;;;;5043218;28;20074;-70
2022/03/03 03:55:28;;;;;;;157.07;19.70;;;21.50;33.60;;;;;;5029407;28;20124;-72
2022/03/03 03:57:54;;;;;;;159.05;20.88;;;21.50;32.40;;;;;;4995014;28;20110;-71
2022/03/03 04:00:21;;;;;;;156.60;25.60;;;21.40;31.60;;;;;;5028450;28;20074;-71
2022/03/03 04:02:47;;;;;;;170.55;27.48;;;21.40;31.20;;;;;;5029869;28;20097;-70
2022/03/03 04:05:15;;;;;;;147.23;28.38;;;21.50;30.60;;;;;;5032672;28;20157;-70
2022/03/03 04:07:41;;;;;;;189.93;35.00;;;21.50;31.00;;;;;;5045838;28;20439;-71
2022/03/03 04:10:08;;;;;;;179.93;45.10;;;21.40;31.20;;;;;;5030981;28;20417;-72
2022/03/03 04:12:35;;;;;;;215.82;63.72;;;21.40;31.40;;;;;;5031665;28;20070;-70
2022/03/03 04:15:02;;;;;;;259.67;75.28;;;21.40;30.20;;;;;;5033503;28;20078;-69
2022/03/03 04:17:29;;;;;;;276.60;96.90;;;21.30;29.90;;;;;;5031719;28;20070;-69
2022/03/03 04:19:56;;;;;;;285.52;97.82;;;21.30;29.30;;;;;;5029705;28;20512;-70
2022/03/03 04:22:22;;;;;;;293.40;95.28;;;21.20;28.70;;;;;;5029606;28;20528;-71
2022/03/03 04:24:48;;;;;;;270.65;93.97;;;21.20;29.40;;;;;;5031035;28;20080;-69
2022/03/03 04:27:15;;;;;;;262.60;90.32;;;21.20;29.70;;;;;;5031207;28;20082;-68
2022/03/03 04:29:42;;;;;;;285.60;90.03;;;21.10;30.00;;;;;;5029778;28;20143;-70
2022/03/03 04:32:08;;;;;;;240.32;82.28;;;21.10;30.10;;;;;;5030255;28;20104;-70
2022/03/03 04:34:35;;;;;;;269.90;90.07;;;21.10;29.80;;;;;;5029523;28;20520;-69
2022/03/03 04:37:02;;;;;;;283.48;91.38;;;21.10;30.00;;;;;;5030662;28;20511;-69
2022/03/03 04:39:28;;;;;;;271.23;88.32;;;21.10;30.40;;;;;;5048258;28;20147;-65
2022/03/03 04:41:55;;;;;;;273.10;92.25;;;21.00;31.00;;;;;;5029348;28;20550;-65
2022/03/03 04:44:21;;;;;;;276.25;98.93;;;20.90;31.10;;;;;;5029710;28;20132;-66
2022/03/03 04:46:47;;;;;;;274.95;90.38;;;20.90;31.20;;;;;;5030228;28;20070;-65
2022/03/03 04:49:14;;;;;;;246.75;82.55;;;20.90;30.90;;;;;;5029989;28;20078;-66
2022/03/03 04:51:41;;;;;;;268.27;87.45;;;20.90;30.80;;;;;;5029277;28;20119;-67
2022/03/03 04:54:09;;;;;;;254.98;82.35;;;20.90;30.70;;;;;;5013514;28;20435;-67
2022/03/03 04:56:36;;;;;;;284.00;85.75;;;20.90;30.70;;;;;;5027505;28;20094;-65
2022/03/03 04:59:03;;;;;;;270.58;81.97;;;20.90;31.00;;;;;;5028209;28;20102;-65
2022/03/03 05:01:30;;;;;;;266.73;82.10;;;20.80;31.40;;;;;;5028948;28;20439;-65
2022/03/03 05:03:56;;;;;;;220.13;79.95;;;20.80;31.20;;;;;;5030456;28;20555;-66
2022/03/03 05:06:23;;;;;;;247.98;80.75;;;20.70;31.10;;;;;;5028473;28;20088;-66
2022/03/03 05:08:49;;;;;;;240.60;75.07;;;20.80;30.50;;;;;;5029168;28;20080;-66
2022/03/03 05:11:16;;;;;;;267.08;78.47;;;20.80;30.00;;;;;;5029316;28;20490;-66
2022/03/03 05:13:42;;;;;;;262.85;78.95;;;20.80;29.90;;;;;;5012103;28;20106;-66
2022/03/03 05:16:09;;;;;;;273.90;79.03;;;20.80;30.20;;;;;;5034763;28;20528;-66
2022/03/03 05:18:36;;;;;;;259.92;81.53;;;20.80;30.70;;;;;;5029299;28;20577;-67
2022/03/03 05:21:02;;;;;;;276.83;82.95;;;20.80;31.10;;;;;;5027443;28;20155;-67
2022/03/03 05:23:29;;;;;;;248.98;82.78;;;20.70;31.70;;;;;;5029983;28;20077;-68
2022/03/03 05:25:55;;;;;;;273.50;84.93;;;20.70;31.90;;;;;;5028289;28;20116;-68
2022/03/03 05:28:22;;;;;;;247.82;81.80;;;20.60;32.20;;;;;;5028164;28;20073;-66
2022/03/03 05:30:48;;;;;;;267.10;84.10;;;20.60;32.70;;;;;;5027208;28;20097;-66
2022/03/03 05:33:15;;;;;;;264.42;79.25;;;20.50;32.80;;;;;;5011198;28;20093;-65
2022/03/03 05:35:45;;;;;;;251.02;76.93;;;20.50;33.30;;;;;;5028374;28;20070;-65
2022/03/03 05:38:11;;;;;;;275.20;76.75;;;20.50;33.60;;;;;;5008694;28;20075;-67
2022/03/03 05:40:37;;;;;;;236.48;74.05;;;20.40;33.70;;;;;;5028271;28;20437;-63
2022/03/03 05:43:04;;;;;;;274.80;75.32;;;20.30;33.20;;;;;;5029426;28;20088;-66
2022/03/03 05:45:34;;;;;;;252.75;72.53;;;20.30;33.30;;;;;;5027803;28;20177;-64
2022/03/03 05:48:01;;;;;;;230.07;70.05;;;20.20;33.30;;;;;;5011925;28;20193;-65
2022/03/03 05:50:28;;;;;;;249.88;70.28;;;20.20;33.50;;;;;;5011098;28;20087;-65
2022/03/03 05:52:57;;;;;;;226.80;70.43;;;20.20;33.40;;;;;;5027161;28;20070;-65
2022/03/03 05:55:24;;;;;;;218.57;70.40;;;20.10;33.20;;;;;;5028217;28;20124;-64
2022/03/03 05:57:53;;;;;;;242.63;69.40;;;20.00;33.20;;;;;;5026517;28;20586;-65
2022/03/03 06:00:21;;;;;;;229.68;68.72;;;20.00;33.70;;;;;;5011706;28;20078;-64
2022/03/03 06:02:53;;;;;;;221.75;71.55;;;20.00;33.90;;;;;;5028044;28;20108;-64
2022/03/03 06:05:25;;;;;;;243.48;71.65;;;19.90;33.20;;;;;;5028119;28;20074;-66
2022/03/03 06:07:54;;;;;;;240.10;71.43;;;19.90;33.40;;;;;;5030212;28;20070;-65
2022/03/03 06:10:31;;;;;;;222.00;66.95;;;19.90;33.40;;;;;;5026786;28;20113;-66
2022/03/03 06:13:23;;;;;;;220.38;70.53;;;19.80;33.30;;;;;;5011497;28;20165;-67
2022/03/03 06:15:51;;;;;;;228.60;72.38;;;19.80;33.20;;;;;;5039358;28;20077;-68
2022/03/03 06:18:26;;;;;;;203.50;65.20;;;19.70;33.10;;;;;;5029403;28;20086;-65
2022/03/03 06:20:53;;;;;;;233.57;72.43;;;19.70;33.20;;;;;;5027928;28;20105;-65
2022/03/03 06:23:20;;;;;;;229.88;71.03;;;19.60;33.90;;;;;;5027444;28;20071;-66
2022/03/03 06:26:07;;;;;;;209.75;66.63;;;19.60;34.80;;;;;;5010695;28;20536;-66
2022/03/03 06:28:34;;;;;;;219.38;72.43;;;19.60;34.40;;;;;;5027404;28;20089;-66
2022/03/03 06:31:01;;;;;;;206.32;68.95;;;19.50;34.50;;;;;;5028332;28;20475;-66
2022/03/03 06:33:28;;;;;;;212.20;68.18;;;19.40;34.90;;;;;;5043718;28;20559;-66
2022/03/03 06:35:55;;;;;;;234.02;72.93;;;19.40;34.70;;;;;;5028480;28;20082;-66
2022/03/03 06:38:22;;;;;;;222.20;70.20;;;19.40;34.60;;;;;;5027944;28;20081;-66
2022/03/03 06:40:49;;;;;;;204.07;71.78;;;19.40;34.60;;;;;;5028126;28;20094;-68
2022/03/03 06:43:18;;;;;;;213.80;71.53;;;19.40;35.20;;;;;;5027811;28;20090;-66
2022/03/03 06:45:44;;;;;;;219.55;73.38;;;19.30;34.80;;;;;;5029362;28;20164;-65
